NCAR-RAP Real-Time Weather Data

Output produced by METARs form (23 July 2019  21:57 UTC)
found at http://weather.rap.ucar.edu/surface/
 
KLAS 232056Z 27008KT 10SM FEW110 BKN140 BKN180 39/10 A2999 RMK AO2 SLP122 VCSH T03940100 58018